Time;durP1;ratioP1;P1;durP2;ratioP2;P2;SDS_P1;SDS_P2;PMS_P1;PMS_P2;Temp;Humidity;BMP_temperature;BMP_pressure;BME280_temperature;BME280_humidity;BME280_pressure;Samples;Min_cycle;Max_cycle;Signal;HPM_P1;HPM_P2
2023/04/11 00:01:02;;;;;;;4.00;2.70;;;;;;;15.09;64.00;97745.47;4176354;28;20671;-86
2023/04/11 00:03:07;;;;;;;4.13;2.60;;;;;;;15.03;63.34;97739.13;4195017;28;20627;-87
2023/04/11 00:05:10;;;;;;;4.80;2.63;;;;;;;15.06;63.99;97741.47;4188973;28;20665;-87
2023/04/11 00:07:14;;;;;;;3.40;2.80;;;;;;;14.99;63.35;97733.31;4192751;28;20730;-86
2023/04/11 00:09:17;;;;;;;3.00;2.70;;;;;;;14.98;63.82;97720.34;4184225;28;20680;-86
2023/04/11 00:11:20;;;;;;;4.70;3.07;;;;;;;14.94;64.64;97717.13;4192321;28;20623;-87
2023/04/11 00:13:25;;;;;;;2.80;2.50;;;;;;;14.88;65.04;97712.44;4190871;28;20654;-87
2023/04/11 00:15:31;;;;;;;3.60;3.07;;;;;;;14.85;65.08;97686.47;4184438;28;20678;-86
2023/04/11 00:17:36;;;;;;;4.13;2.60;;;;;;;14.85;64.88;97694.34;4179207;28;20683;-86
2023/04/11 00:19:42;;;;;;;4.50;2.70;;;;;;;14.83;65.73;97690.22;4175341;28;20764;-86
2023/04/11 00:21:45;;;;;;;3.50;3.00;;;;;;;14.81;65.86;97689.53;4192832;28;20640;-86
2023/04/11 00:23:48;;;;;;;4.13;3.27;;;;;;;14.78;66.03;97676.69;4191386;28;20700;-86
2023/04/11 00:25:51;;;;;;;3.83;2.80;;;;;;;14.78;66.18;97677.50;4195497;28;20626;-86
2023/04/11 00:27:54;;;;;;;3.33;2.67;;;;;;;14.83;66.77;97672.66;4191033;28;21416;-86
2023/04/11 00:29:57;;;;;;;4.83;3.00;;;;;;;14.81;66.62;97668.53;4181519;28;20635;-86
2023/04/11 00:32:02;;;;;;;3.20;2.37;;;;;;;14.82;66.28;97663.13;4190041;28;20641;-86
2023/04/11 00:34:05;;;;;;;3.80;2.70;;;;;;;14.87;66.36;97660.91;4190280;28;20656;-86
2023/04/11 00:36:09;;;;;;;3.13;2.53;;;;;;;14.87;68.19;97650.41;4194553;28;20737;-86
2023/04/11 00:38:12;;;;;;;3.67;2.70;;;;;;;14.86;67.75;97646.13;4176906;28;20650;-86
2023/04/11 00:40:17;;;;;;;3.13;2.47;;;;;;;14.82;67.94;97652.63;4186905;28;20631;-86
2023/04/11 00:42:20;;;;;;;3.33;2.93;;;;;;;14.82;68.29;97662.28;4188421;28;20639;-86
2023/04/11 00:44:24;;;;;;;3.40;2.33;;;;;;;14.85;67.71;97675.97;4189365;28;20722;-86
2023/04/11 00:46:27;;;;;;;4.50;2.73;;;;;;;14.90;67.94;97676.38;4187177;28;20696;-86
2023/04/11 00:48:32;;;;;;;4.67;2.67;;;;;;;14.96;67.84;97670.56;4188613;28;20706;-86
2023/04/11 00:50:37;;;;;;;3.07;2.50;;;;;;;15.00;68.09;97669.31;4190993;28;20780;-86
2023/04/11 00:52:40;;;;;;;3.80;2.57;;;;;;;15.03;67.70;97673.44;4176527;28;20633;-86
2023/04/11 00:54:43;;;;;;;4.60;2.90;;;;;;;15.07;68.39;97662.53;4189686;28;20636;-86
2023/04/11 00:56:46;;;;;;;3.50;2.70;;;;;;;15.07;67.11;97669.59;4189769;28;20631;-86
2023/04/11 00:58:50;;;;;;;3.60;2.90;;;;;;;15.07;66.89;97663.34;4190562;28;21103;-87
2023/04/11 01:00:53;;;;;;;4.03;2.80;;;;;;;15.11;66.85;97663.91;4189050;28;20662;-86
2023/04/11 01:02:56;;;;;;;5.57;2.40;;;;;;;15.12;66.81;97661.13;4169497;28;20686;-86
2023/04/11 01:05:01;;;;;;;3.00;2.30;;;;;;;15.13;68.40;97656.69;4196540;28;20749;-86
2023/04/11 01:07:05;;;;;;;2.80;2.43;;;;;;;15.14;68.13;97655.75;4189946;28;20674;-86
2023/04/11 01:09:09;;;;;;;3.50;2.40;;;;;;;15.14;70.62;97637.34;4190311;28;20678;-86
2023/04/11 01:11:15;;;;;;;4.43;2.70;;;;;;;15.09;69.87;97644.81;4194073;28;20659;-85
2023/04/11 01:13:18;;;;;;;3.83;3.30;;;;;;;15.07;70.88;97647.56;4185170;28;20666;-86
2023/04/11 01:15:21;;;;;;;3.90;2.67;;;;;;;15.07;70.66;97659.06;4186515;28;21200;-86
2023/04/11 01:17:25;;;;;;;3.83;2.60;;;;;;;15.09;70.85;97665.81;4192431;28;20641;-86
2023/04/11 01:19:28;;;;;;;2.70;2.40;;;;;;;15.11;71.23;97653.41;4187569;28;20669;-86
2023/04/11 01:21:35;;;;;;;4.40;2.60;;;;;;;15.14;70.92;97668.88;4192533;28;20667;-86
2023/04/11 01:23:39;;;;;;;3.63;2.50;;;;;;;15.05;70.22;97674.97;4174238;28;20674;-86
2023/04/11 01:25:43;;;;;;;4.30;2.87;;;;;;;15.03;70.49;97682.16;4186729;28;20699;-86
2023/04/11 01:27:47;;;;;;;3.37;2.30;;;;;;;15.02;71.16;97671.78;4189572;28;20626;-86
2023/04/11 01:29:51;;;;;;;3.27;2.50;;;;;;;14.99;71.86;97674.69;4186122;28;21066;-86
2023/04/11 01:31:54;;;;;;;4.93;2.60;;;;;;;14.96;71.90;97685.47;4159944;28;20647;-86
2023/04/11 01:33:57;;;;;;;4.53;2.90;;;;;;;14.97;72.88;97689.78;4186965;28;20663;-86
2023/04/11 01:36:00;;;;;;;4.07;2.63;;;;;;;14.94;73.90;97679.56;4187490;28;20634;-86
2023/04/11 01:38:03;;;;;;;4.00;2.40;;;;;;;14.92;73.05;97684.94;4176904;28;20636;-86
2023/04/11 01:40:09;;;;;;;6.40;4.17;;;;;;;14.80;76.70;97688.69;4189212;28;21261;-86
2023/04/11 01:42:13;;;;;;;4.07;3.10;;;;;;;14.65;76.48;97686.66;4183535;28;20693;-86
2023/04/11 01:44:17;;;;;;;3.30;2.67;;;;;;;14.68;76.18;97689.81;4174841;28;20640;-86
2023/04/11 01:46:20;;;;;;;5.00;2.63;;;;;;;14.62;77.82;97674.63;4188871;28;20640;-86
2023/04/11 01:48:23;;;;;;;6.27;2.83;;;;;;;14.55;80.05;97682.38;4188196;28;21054;-87
2023/04/11 01:50:26;;;;;;;4.00;2.73;;;;;;;14.51;81.79;97673.09;4186089;28;20727;-86
2023/04/11 01:52:29;;;;;;;3.20;2.80;;;;;;;14.44;81.86;97685.97;4186393;28;21251;-86
2023/04/11 01:54:33;;;;;;;3.80;2.70;;;;;;;14.40;82.36;97702.97;4192341;28;20647;-86
2023/04/11 01:56:37;;;;;;;4.77;2.97;;;;;;;14.35;83.08;97699.91;4190944;28;20665;-86
2023/04/11 01:58:41;;;;;;;4.23;2.97;;;;;;;14.27;84.11;97688.47;4175429;28;20642;-86
2023/04/11 02:00:44;;;;;;;3.73;2.80;;;;;;;14.22;84.71;97698.50;4175807;28;20639;-86
2023/04/11 02:02:47;;;;;;;4.57;3.33;;;;;;;14.18;85.90;97712.88;4182337;28;20669;-86
2023/04/11 02:04:51;;;;;;;5.67;3.37;;;;;;;14.15;86.42;97713.97;4180410;28;20677;-86
2023/04/11 02:06:54;;;;;;;4.80;3.00;;;;;;;14.08;86.43;97734.81;4186800;28;20666;-86
2023/04/11 02:08:57;;;;;;;4.60;3.10;;;;;;;14.03;86.68;97735.16;4170279;28;20678;-86
2023/04/11 02:11:00;;;;;;;6.23;3.47;;;;;;;14.09;87.47;97739.91;4175874;28;20705;-86
2023/04/11 02:13:04;;;;;;;4.20;2.97;;;;;;;13.98;88.78;97733.91;4180519;28;20632;-86
2023/04/11 02:15:08;;;;;;;9.03;3.13;;;;;;;13.93;88.47;97731.69;4183060;28;20663;-86
2023/04/11 02:17:12;;;;;;;5.60;3.60;;;;;;;13.87;88.90;97726.97;4189122;28;20681;-86
2023/04/11 02:19:16;;;;;;;4.03;3.63;;;;;;;13.75;90.46;97725.41;4187620;28;21078;-86
2023/04/11 02:21:19;;;;;;;4.60;3.30;;;;;;;13.71;90.90;97729.28;4192470;28;20796;-86
2023/04/11 02:23:24;;;;;;;4.83;3.60;;;;;;;13.64;91.25;97726.50;4169957;28;20659;-86
2023/04/11 02:25:27;;;;;;;3.73;3.30;;;;;;;13.58;91.19;97721.78;4187008;28;20635;-86
2023/04/11 02:27:30;;;;;;;3.67;3.00;;;;;;;13.60;91.17;97730.34;4183631;28;20671;-86
2023/04/11 02:29:34;;;;;;;3.37;2.97;;;;;;;13.56;91.43;97723.69;4170257;28;20690;-86
2023/04/11 02:31:38;;;;;;;4.00;3.33;;;;;;;13.53;91.67;97718.72;4188588;28;20724;-86
2023/04/11 02:33:41;;;;;;;3.10;2.80;;;;;;;13.50;92.83;97724.22;4190195;28;20683;-86
2023/04/11 02:35:44;;;;;;;5.57;3.03;;;;;;;13.50;91.74;97735.53;4185025;28;20634;-86
2023/04/11 02:37:47;;;;;;;3.43;2.90;;;;;;;13.50;92.97;97740.78;4163951;28;20632;-86
2023/04/11 02:39:50;;;;;;;4.20;2.60;;;;;;;13.49;93.42;97749.59;4183970;28;20742;-86
2023/04/11 02:41:53;;;;;;;5.33;2.70;;;;;;;13.48;92.68;97737.44;4176233;28;20627;-86
2023/04/11 02:43:56;;;;;;;3.30;2.60;;;;;;;13.48;93.01;97739.25;4175154;28;20635;-86
2023/04/11 02:46:01;;;;;;;2.93;2.60;;;;;;;13.45;92.96;97763.09;4183122;28;20615;-85
2023/04/11 02:48:17;;;;;;;3.97;3.57;;;;;;;13.41;93.22;97761.69;4169637;28;20672;-85
2023/04/11 02:50:21;;;;;;;3.53;2.30;;;;;;;13.41;93.05;97748.56;4173178;28;20630;-86
2023/04/11 02:52:26;;;;;;;3.70;2.50;;;;;;;13.39;94.32;97750.50;4172438;28;20629;-86
2023/04/11 02:54:29;;;;;;;3.30;2.83;;;;;;;13.37;93.39;97742.78;4183107;28;20666;-86
2023/04/11 02:56:37;;;;;;;3.00;2.50;;;;;;;13.32;94.83;97739.72;4173464;28;20649;-86
2023/04/11 02:58:42;;;;;;;4.33;1.93;;;;;;;13.29;94.03;97723.41;4184716;28;20748;-85
2023/04/11 03:00:49;;;;;;;3.60;1.93;;;;;;;13.28;93.80;97725.22;4181358;28;20635;-86
2023/04/11 03:02:55;;;;;;;3.80;2.17;;;;;;;13.28;93.61;97737.50;4195071;28;20637;-86
2023/04/11 03:05:02;;;;;;;2.67;2.20;;;;;;;13.27;94.70;97739.25;4201306;28;20652;-86
2023/04/11 03:07:07;;;;;;;2.60;1.70;;;;;;;13.26;94.58;97742.00;4190136;28;21220;-86
2023/04/11 03:09:10;;;;;;;4.03;1.70;;;;;;;13.24;94.57;97749.19;4170557;28;21311;-86
2023/04/11 03:11:13;;;;;;;2.87;1.83;;;;;;;13.22;93.57;97751.09;4185026;28;20630;-86
2023/04/11 03:13:17;;;;;;;3.03;1.70;;;;;;;13.21;95.29;97744.19;4198359;28;20691;-86
2023/04/11 03:15:20;;;;;;;3.07;2.03;;;;;;;13.19;94.57;97753.97;4169468;28;20698;-85
2023/04/11 03:17:23;;;;;;;3.10;1.80;;;;;;;13.16;95.58;97762.09;4191129;28;20653;-86
2023/04/11 03:19:28;;;;;;;3.20;1.83;;;;;;;13.15;94.34;97763.03;4189377;28;20674;-86
2023/04/11 03:21:32;;;;;;;2.50;1.70;;;;;;;13.13;95.58;97758.91;4189240;28;20674;-86
2023/04/11 03:23:35;;;;;;;2.80;1.80;;;;;;;13.11;94.98;97755.56;4188162;28;20651;-86
2023/04/11 03:25:39;;;;;;;2.90;2.13;;;;;;;13.09;94.31;97752.25;4171369;28;20650;-86
2023/04/11 03:27:43;;;;;;;3.00;1.83;;;;;;;13.08;95.51;97750.59;4202116;28;20648;-86
2023/04/11 03:29:47;;;;;;;5.50;2.20;;;;;;;13.07;95.49;97754.19;4189235;28;20715;-86
2023/04/11 03:32:00;;;;;;;3.57;1.67;;;;;;;13.04;95.22;97750.03;4167313;28;21048;-86
2023/04/11 03:34:07;;;;;;;2.73;1.43;;;;;;;13.02;95.75;97738.00;4180363;28;20634;-86
2023/04/11 03:36:12;;;;;;;2.30;1.83;;;;;;;13.02;94.87;97754.56;4172269;28;20645;-86
2023/04/11 03:38:16;;;;;;;2.83;1.57;;;;;;;13.03;95.10;97758.00;4204707;28;20651;-86
2023/04/11 03:40:19;;;;;;;3.10;2.10;;;;;;;13.05;94.84;97754.31;4191678;28;20630;-86
2023/04/11 03:42:31;;;;;;;2.40;2.00;;;;;;;13.05;97.02;97759.56;4190134;28;20634;-86
2023/04/11 03:44:36;;;;;;;2.30;1.70;;;;;;;13.07;96.95;97757.63;4188310;28;21408;-86
2023/04/11 03:46:39;;;;;;;3.13;2.07;;;;;;;13.06;95.83;97766.44;4174284;28;20623;-86
2023/04/11 03:48:44;;;;;;;3.00;2.30;;;;;;;12.89;96.91;97759.16;4184057;28;20640;-86
2023/04/11 03:50:47;;;;;;;3.60;1.97;;;;;;;12.85;97.56;97762.16;4173666;28;21066;-86
2023/04/11 03:52:56;;;;;;;3.00;1.73;;;;;;;12.85;95.92;97746.44;4190805;28;20617;-86
2023/04/11 03:54:59;;;;;;;2.47;1.80;;;;;;;12.86;96.91;97743.69;4177066;28;21040;-86
2023/04/11 03:57:03;;;;;;;2.20;1.90;;;;;;;12.86;96.30;97737.66;4189795;28;20724;-86
2023/04/11 03:59:08;;;;;;;2.90;1.93;;;;;;;12.83;96.94;97730.88;4191507;28;20621;-86
2023/04/11 04:01:23;;;;;;;2.60;1.87;;;;;;;12.83;96.19;97741.34;4185836;28;20626;-86
2023/04/11 04:03:28;;;;;;;2.70;1.97;;;;;;;12.84;96.39;97744.81;4186389;28;21253;-86
2023/04/11 04:05:33;;;;;;;4.83;2.10;;;;;;;12.86;97.42;97748.94;4167209;28;21272;-86
2023/04/11 04:07:36;;;;;;;4.73;1.87;;;;;;;12.86;97.26;97742.88;4174396;28;20635;-86
2023/04/11 04:09:51;;;;;;;2.33;1.73;;;;;;;12.86;97.57;97728.00;4204565;28;20677;-86
2023/04/11 04:11:54;;;;;;;3.00;2.03;;;;;;;12.88;96.08;97738.34;4171984;28;20646;-86
2023/04/11 04:14:07;;;;;;;2.30;1.83;;;;;;;12.83;95.76;97727.44;4199772;28;20656;-86
2023/04/11 04:16:10;;;;;;;1.90;1.57;;;;;;;12.80;97.17;97738.94;4192242;28;20649;-86
2023/04/11 04:18:16;;;;;;;4.70;1.90;;;;;;;12.80;95.41;97736.31;4195041;28;20993;-86
2023/04/11 04:20:23;;;;;;;2.77;1.73;;;;;;;12.76;96.86;97732.31;4185779;28;20789;-85
2023/04/11 04:22:30;;;;;;;1.93;1.63;;;;;;;12.74;96.23;97744.69;4188722;28;20677;-85
2023/04/11 04:24:38;;;;;;;2.83;1.90;;;;;;;12.72;97.05;97756.25;4178235;28;21284;-86
2023/04/11 04:26:56;;;;;;;3.93;2.23;;;;;;;12.69;96.19;97762.56;4190628;28;20768;-86
2023/04/11 04:29:16;;;;;;;2.87;2.13;;;;;;;12.64;97.24;97773.53;4201625;28;20666;-86
2023/04/11 04:31:28;;;;;;;3.13;2.10;;;;;;;12.61;96.42;97779.81;4178091;28;20699;-86
2023/04/11 04:33:41;;;;;;;3.43;2.53;;;;;;;12.61;97.11;97782.44;4197555;28;20633;-86
2023/04/11 04:35:56;;;;;;;2.87;2.47;;;;;;;12.59;96.67;97773.91;4185618;28;20713;-86
2023/04/11 04:38:05;;;;;;;3.03;2.10;;;;;;;12.55;97.15;97774.25;4172581;28;20741;-86
2023/04/11 04:40:19;;;;;;;2.57;1.80;;;;;;;12.49;96.81;97770.34;4191728;28;20636;-86
2023/04/11 04:42:35;;;;;;;4.30;2.10;;;;;;;12.45;95.99;97789.06;4184322;28;20632;-86
2023/04/11 04:44:40;;;;;;;3.03;2.00;;;;;;;12.43;95.84;97788.34;4184994;28;20632;-86
2023/04/11 04:46:53;;;;;;;2.77;1.90;;;;;;;12.41;95.95;97803.31;4169856;28;20637;-86
2023/04/11 04:48:59;;;;;;;3.73;1.80;;;;;;;12.40;95.12;97802.50;4182471;28;20642;-86
2023/04/11 04:51:05;;;;;;;5.10;1.50;;;;;;;12.38;95.20;97799.16;4191484;28;20962;-86
2023/04/11 04:53:10;;;;;;;3.77;1.70;;;;;;;12.35;95.64;97801.19;4171512;28;20665;-86
2023/04/11 04:55:20;;;;;;;4.67;1.97;;;;;;;12.30;95.71;97809.41;4174386;28;21057;-85
2023/04/11 04:57:24;;;;;;;4.00;1.50;;;;;;;12.26;94.91;97815.00;4199846;28;20646;-86
2023/04/11 04:59:29;;;;;;;2.27;1.30;;;;;;;12.23;94.49;97821.28;4190922;28;20628;-86
2023/04/11 05:01:42;;;;;;;3.50;1.50;;;;;;;12.20;96.45;97815.50;4190582;28;21006;-86
2023/04/11 05:03:49;;;;;;;3.83;1.50;;;;;;;12.18;94.18;97822.63;4174102;28;20710;-86
2023/04/11 05:06:01;;;;;;;2.90;1.30;;;;;;;12.14;95.44;97825.59;4174534;28;20692;-85
2023/04/11 05:08:05;;;;;;;3.10;1.30;;;;;;;12.11;95.82;97837.13;4192437;28;21235;-86
2023/04/11 05:10:10;;;;;;;3.40;1.37;;;;;;;12.12;95.67;97843.16;4189463;28;20677;-86
2023/04/11 05:12:15;;;;;;;3.40;1.73;;;;;;;12.09;96.04;97839.03;4186908;28;20636;-86
2023/04/11 05:14:18;;;;;;;3.90;1.70;;;;;;;12.08;94.92;97853.06;4193350;28;21282;-86
2023/04/11 05:16:23;;;;;;;4.10;1.50;;;;;;;12.06;95.81;97851.53;4188417;28;21036;-86
2023/04/11 05:18:28;;;;;;;3.50;1.50;;;;;;;12.03;96.58;97859.59;4184228;28;20731;-86
2023/04/11 05:20:32;;;;;;;3.63;1.50;;;;;;;12.06;95.08;97854.13;4180414;28;20671;-86
2023/04/11 05:22:36;;;;;;;3.87;1.50;;;;;;;11.97;96.18;97866.13;4150035;28;1112765;-85
2023/04/11 05:24:39;;;;;;;3.03;1.53;;;;;;;11.94;96.96;97865.53;4191471;28;21265;-86
2023/04/11 05:26:45;;;;;;;2.80;1.27;;;;;;;11.93;97.02;97869.91;4193517;28;20968;-86
2023/04/11 05:28:52;;;;;;;2.57;1.87;;;;;;;11.92;97.03;97883.97;4163657;28;20622;-86
2023/04/11 05:30:58;;;;;;;2.90;1.50;;;;;;;11.93;97.32;97885.59;4181075;28;20643;-85
2023/04/11 05:33:03;;;;;;;2.67;1.37;;;;;;;11.93;96.02;97888.22;4176490;28;20700;-85
2023/04/11 05:35:08;;;;;;;3.83;1.70;;;;;;;11.95;95.60;97899.41;4180393;28;20756;-86
2023/04/11 05:37:25;;;;;;;3.20;1.70;;;;;;;11.98;96.90;97888.72;4187745;28;20427;-85
2023/04/11 05:39:28;;;;;;;3.83;1.70;;;;;;;11.88;95.19;97882.50;4177582;28;20676;-86
2023/04/11 05:41:31;;;;;;;2.97;1.30;;;;;;;11.83;95.29;97870.75;4191379;28;20701;-86
2023/04/11 05:43:34;;;;;;;3.20;1.30;;;;;;;11.67;95.53;97867.66;4174070;28;21225;-86
2023/04/11 05:45:38;;;;;;;4.80;1.57;;;;;;;11.58;96.31;97862.31;4177772;28;20641;-86
2023/04/11 05:47:44;;;;;;;4.93;1.50;;;;;;;11.49;96.19;97855.16;4186253;28;20736;-86
2023/04/11 05:49:48;;;;;;;4.00;1.50;;;;;;;11.33;96.37;97862.44;4176158;28;20714;-85
2023/04/11 05:51:51;;;;;;;4.10;1.50;;;;;;;11.34;96.26;97862.31;4167063;28;20662;-86
2023/04/11 05:53:54;;;;;;;8.13;1.63;;;;;;;11.23;97.23;97866.72;4188060;28;20636;-86
2023/04/11 05:55:58;;;;;;;2.27;1.17;;;;;;;11.06;96.37;97859.25;4188634;28;20627;-86
2023/04/11 05:58:01;;;;;;;4.67;1.20;;;;;;;10.87;96.47;97865.97;4190450;28;21051;-86
2023/04/11 06:00:11;;;;;;;2.30;1.30;;;;;;;10.90;97.44;97878.78;4188271;28;21251;-86
2023/04/11 06:02:14;;;;;;;1.83;1.07;;;;;;;10.84;95.89;97887.06;4185614;28;20639;-86
2023/04/11 06:04:17;;;;;;;1.90;1.10;;;;;;;10.85;95.48;97892.19;4185894;28;20628;-86
2023/04/11 06:06:23;;;;;;;2.00;0.90;;;;;;;10.89;96.31;97891.00;4174969;28;20698;-86
2023/04/11 06:08:26;;;;;;;2.00;1.43;;;;;;;10.94;96.54;97893.25;4190044;28;20676;-86
2023/04/11 06:10:30;;;;;;;1.90;1.00;;;;;;;10.99;95.94;97915.47;4177747;28;20730;-85
2023/04/11 06:12:33;;;;;;;2.63;1.20;;;;;;;11.06;96.26;97919.28;4174932;28;20638;-86
2023/04/11 06:14:37;;;;;;;1.60;1.10;;;;;;;11.12;96.35;97912.81;4181963;28;20655;-87
2023/04/11 06:16:42;;;;;;;3.00;1.27;;;;;;;11.13;95.02;97912.69;4182279;28;20761;-87
2023/04/11 06:18:45;;;;;;;4.73;1.70;;;;;;;11.15;95.01;97915.19;4183719;28;21195;-87
2023/04/11 06:20:49;;;;;;;2.40;1.10;;;;;;;11.23;93.54;97916.31;4188422;28;21059;-86
2023/04/11 06:22:54;;;;;;;2.50;1.10;;;;;;;11.23;93.03;97921.53;4202502;28;20642;-86
2023/04/11 06:24:57;;;;;;;4.60;1.70;;;;;;;11.26;94.27;97923.91;4191667;28;20639;-87
2023/04/11 06:27:00;;;;;;;2.67;1.40;;;;;;;11.23;92.22;97923.28;4185873;28;20632;-87
2023/04/11 06:29:04;;;;;;;2.40;1.17;;;;;;;11.19;91.99;97911.41;4187420;28;20646;-87
2023/04/11 06:31:08;;;;;;;3.50;1.10;;;;;;;11.22;93.18;97916.41;4182759;28;20621;-87
2023/04/11 06:33:11;;;;;;;4.90;1.50;;;;;;;11.27;93.19;97922.13;4186848;28;20636;-87
2023/04/11 06:35:14;;;;;;;2.63;1.13;;;;;;;11.29;92.13;97913.25;4186684;28;21191;-87
2023/04/11 06:37:18;;;;;;;2.67;1.10;;;;;;;11.28;91.53;97917.59;4179831;28;20655;-86
2023/04/11 06:39:22;;;;;;;2.23;1.07;;;;;;;11.25;92.59;97922.22;4182569;28;20714;-89
2023/04/11 06:41:25;;;;;;;2.50;1.03;;;;;;;11.29;91.22;97927.13;4162090;28;20633;-89
2023/04/11 06:43:28;;;;;;;2.13;1.00;;;;;;;11.36;92.62;97935.31;4191722;28;20634;-89
2023/04/11 06:45:31;;;;;;;3.87;1.30;;;;;;;11.37;92.37;97935.22;4187640;28;20681;-89
2023/04/11 06:47:34;;;;;;;4.13;1.40;;;;;;;11.39;91.83;97937.69;4185616;28;21287;-89
2023/04/11 06:49:37;;;;;;;4.37;1.23;;;;;;;11.29;90.47;97937.56;4185096;28;21047;-89
2023/04/11 06:51:41;;;;;;;3.17;1.10;;;;;;;11.31;90.90;97940.06;4189100;28;20709;-89
2023/04/11 06:53:44;;;;;;;3.00;1.07;;;;;;;11.18;90.83;97946.28;4189262;28;20644;-89
2023/04/11 06:55:49;;;;;;;3.53;1.30;;;;;;;11.24;92.04;97954.50;4159303;28;20724;-89
2023/04/11 06:57:52;;;;;;;4.07;1.70;;;;;;;11.22;90.92;97968.63;4185163;28;21029;-89
2023/04/11 06:59:56;;;;;;;4.53;1.10;;;;;;;11.13;91.22;97970.09;4185527;28;20626;-89
2023/04/11 07:01:59;;;;;;;2.13;1.23;;;;;;;11.23;91.94;97965.91;4184860;28;20983;-89
2023/04/11 07:04:02;;;;;;;2.73;1.37;;;;;;;11.35;91.43;97971.06;4184068;28;21863;-89
2023/04/11 07:06:06;;;;;;;2.97;1.10;;;;;;;11.45;92.28;97984.25;4186225;28;21021;-89
2023/04/11 07:08:10;;;;;;;1.83;1.00;;;;;;;11.33;90.40;97966.88;4184618;28;20638;-88
2023/04/11 07:10:13;;;;;;;2.93;1.40;;;;;;;11.41;91.61;97972.34;4183621;28;20637;-86
2023/04/11 07:12:17;;;;;;;2.30;1.00;;;;;;;11.56;89.80;97979.94;4190247;28;21150;-83
2023/04/11 07:14:20;;;;;;;3.43;1.50;;;;;;;11.65;90.45;97974.06;4182786;28;20640;-84
2023/04/11 07:16:24;;;;;;;6.03;2.17;;;;;;;11.60;90.20;97986.59;4183404;28;20670;-84
2023/04/11 07:18:27;;;;;;;3.53;1.20;;;;;;;11.70;91.45;97992.81;4183732;28;20658;-84
2023/04/11 07:20:31;;;;;;;2.60;1.33;;;;;;;11.81;90.16;97995.47;4179262;28;21218;-86
2023/04/11 07:22:35;;;;;;;4.37;1.20;;;;;;;11.84;89.71;98006.50;4186884;28;20697;-85
2023/04/11 07:24:38;;;;;;;4.33;1.70;;;;;;;11.84;91.11;98006.50;4182131;28;20690;-85
2023/04/11 07:26:41;;;;;;;3.03;1.50;;;;;;;11.83;88.86;98010.09;4191017;28;20639;-86
2023/04/11 07:28:46;;;;;;;5.80;2.07;;;;;;;11.79;89.27;98018.25;4183208;28;20650;-86
2023/04/11 07:30:49;;;;;;;5.40;1.37;;;;;;;11.74;90.00;98014.31;4191922;28;20638;-89
2023/04/11 07:32:52;;;;;;;4.27;1.27;;;;;;;11.75;89.20;98016.81;4185971;28;20615;-86
2023/04/11 07:34:56;;;;;;;3.17;1.90;;;;;;;11.76;89.97;98016.69;4183130;28;21187;-86
2023/04/11 07:36:59;;;;;;;5.67;1.50;;;;;;;11.83;89.89;98023.16;4181229;28;20639;-88
2023/04/11 07:39:07;;;;;;;3.40;1.73;;;;;;;11.91;91.74;98028.63;4183465;28;20764;-86
2023/04/11 07:41:10;;;;;;;5.63;2.93;;;;;;;11.95;90.29;98019.63;4187868;28;20636;-87
2023/04/11 07:43:14;;;;;;;2.97;1.53;;;;;;;11.97;90.59;98025.56;4177256;28;20751;-88
2023/04/11 07:45:18;;;;;;;6.27;1.70;;;;;;;12.00;89.38;98022.72;4166290;28;20829;-86
2023/04/11 07:47:22;;;;;;;3.40;1.47;;;;;;;12.10;88.22;98028.06;4182568;28;20636;-83
2023/04/11 07:49:25;;;;;;;3.83;1.33;;;;;;;12.27;89.36;98031.91;4166103;28;20981;-83
2023/04/11 07:51:28;;;;;;;3.67;1.50;;;;;;;12.50;87.72;98022.31;4186363;28;20642;-83
2023/04/11 07:53:33;;;;;;;4.50;1.60;;;;;;;12.64;87.73;98029.94;4189586;28;21055;-83
2023/04/11 07:55:38;;;;;;;2.63;1.43;;;;;;;12.66;85.98;98033.25;4187301;28;20637;-83
2023/04/11 07:57:41;;;;;;;2.97;1.43;;;;;;;12.64;86.49;98035.16;4185217;28;20657;-83
2023/04/11 07:59:45;;;;;;;3.63;1.70;;;;;;;12.67;87.87;98030.50;4173957;28;21175;-83
2023/04/11 08:01:58;;;;;;;4.43;2.00;;;;;;;12.66;84.33;98020.16;4185456;28;20636;-83
2023/04/11 08:04:01;;;;;;;4.67;2.20;;;;;;;12.55;84.80;98015.75;4192086;28;21279;-83
2023/04/11 08:06:05;;;;;;;6.53;1.90;;;;;;;12.56;85.13;98021.84;4182926;28;20676;-83
2023/04/11 08:08:09;;;;;;;3.27;1.63;;;;;;;12.55;86.30;98026.22;4185126;28;20730;-83
2023/04/11 08:10:12;;;;;;;5.25;1.80;;;;;;;12.62;85.93;98029.22;4171514;28;20809;-83
2023/04/11 08:12:16;;;;;;;3.63;1.60;;;;;;;12.73;85.28;98028.28;4181522;28;20226;-83
2023/04/11 08:14:19;;;;;;;6.70;2.10;;;;;;;12.69;85.78;98021.59;4192986;28;20628;-83
2023/04/11 08:16:22;;;;;;;5.77;2.00;;;;;;;12.74;83.93;98022.06;4185443;28;20625;-83
2023/04/11 08:18:28;;;;;;;4.87;1.60;;;;;;;12.85;82.83;98024.75;4182949;28;21244;-83
2023/04/11 08:20:32;;;;;;;6.60;2.10;;;;;;;12.85;82.80;98022.13;4195475;28;20629;-83
2023/04/11 08:22:35;;;;;;;3.90;1.60;;;;;;;12.85;83.40;98024.75;4186819;28;21264;-83
2023/04/11 08:24:38;;;;;;;4.03;1.50;;;;;;;12.94;83.80;98025.78;4192051;28;21299;-83
2023/04/11 08:26:41;;;;;;;5.27;2.07;;;;;;;12.99;83.80;98021.88;4192356;28;21226;-84
2023/04/11 08:28:44;;;;;;;7.97;1.90;;;;;;;13.01;83.64;98029.59;4189608;28;20617;-83
2023/04/11 08:30:51;;;;;;;8.20;1.90;;;;;;;13.07;81.82;98032.56;4190949;28;20669;-83
2023/04/11 08:32:54;;;;;;;7.80;2.10;;;;;;;13.13;82.29;98037.31;4186688;28;20614;-83
2023/04/11 08:34:59;;;;;;;4.30;1.90;;;;;;;13.14;81.00;98036.38;4190899;28;20624;-83
2023/04/11 08:37:03;;;;;;;5.53;1.90;;;;;;;13.09;81.11;98033.25;4185073;28;20697;-83
2023/04/11 08:39:06;;;;;;;3.60;1.50;;;;;;;13.05;81.74;98044.09;4173291;28;20712;-83
2023/04/11 08:41:09;;;;;;;4.00;1.70;;;;;;;13.00;80.01;98044.44;4171631;28;20748;-84
2023/04/11 08:43:12;;;;;;;4.65;2.10;;;;;;;12.97;80.21;98047.31;4189449;28;20736;-83
2023/04/11 08:45:18;;;;;;;5.97;1.70;;;;;;;12.91;80.17;98047.78;4189524;28;20622;-83
2023/04/11 08:47:21;;;;;;;4.17;1.87;;;;;;;12.89;78.81;98049.69;4189579;28;20632;-83
2023/04/11 08:49:24;;;;;;;5.27;1.73;;;;;;;12.93;78.81;98042.44;4189666;28;20641;-83
2023/04/11 08:51:30;;;;;;;7.30;2.07;;;;;;;13.08;78.90;98030.75;4179298;28;20727;-83
2023/04/11 08:53:36;;;;;;;8.00;1.90;;;;;;;13.60;79.91;98050.06;4187119;28;20695;-83
2023/04/11 08:55:45;;;;;;;4.63;1.60;;;;;;;13.77;78.89;98058.19;4191318;28;21366;-83
2023/04/11 08:57:48;;;;;;;7.90;1.90;;;;;;;13.95;79.67;98051.44;4191156;28;20677;-83
2023/04/11 08:59:52;;;;;;;5.33;1.77;;;;;;;14.14;77.84;98063.78;4185839;28;21007;-83
2023/04/11 09:02:07;;;;;;;3.13;1.50;;;;;;;14.49;75.74;98061.66;4194973;28;20716;-83
2023/04/11 09:04:10;;;;;;;5.20;1.63;;;;;;;14.59;75.14;98059.09;4186084;28;20621;-83
2023/04/11 09:06:14;;;;;;;6.70;2.00;;;;;;;14.51;74.21;98059.75;4184742;28;20636;-83
2023/04/11 09:08:19;;;;;;;5.63;2.03;;;;;;;14.60;74.98;98075.56;4189675;28;20631;-83
2023/04/11 09:10:23;;;;;;;7.20;1.80;;;;;;;14.62;75.04;98065.75;4192128;28;20667;-83
2023/04/11 09:12:29;;;;;;;4.03;1.47;;;;;;;14.53;73.98;98063.06;4184819;28;21561;-84
2023/04/11 09:14:32;;;;;;;6.60;3.73;;;;;;;14.49;74.17;98068.72;4173880;28;20996;-84
2023/04/11 09:16:35;;;;;;;8.63;2.20;;;;;;;14.68;74.96;98065.22;4187131;28;20634;-84
2023/04/11 09:18:40;;;;;;;6.50;2.07;;;;;;;15.00;75.45;98073.81;4183452;28;20651;-87
2023/04/11 09:20:43;;;;;;;8.77;2.10;;;;;;;15.40;72.90;98069.41;4193731;28;20635;-86
2023/04/11 09:22:49;;;;;;;4.00;1.47;;;;;;;15.50;70.33;98065.00;4171621;28;20688;-89
2023/04/11 09:25:03;;;;;;;3.37;1.40;;;;;;;15.19;69.77;98056.34;4180493;28;20649;-87
2023/04/11 09:27:08;;;;;;;4.83;1.70;;;;;;;15.04;69.90;98048.94;4187688;28;20626;-87
2023/04/11 09:29:11;;;;;;;3.40;1.60;;;;;;;14.72;70.71;98056.13;4171924;28;20658;-88
2023/04/11 09:31:15;;;;;;;5.23;1.70;;;;;;;14.66;71.87;98048.78;4174991;28;20638;-88
2023/04/11 09:33:21;;;;;;;5.13;1.70;;;;;;;14.63;70.81;98037.72;4186159;28;20671;-86
2023/04/11 09:35:27;;;;;;;7.07;1.50;;;;;;;14.43;71.49;98049.03;4189729;28;20983;-85
2023/04/11 09:37:41;;;;;;;5.10;1.90;;;;;;;14.14;71.25;98058.53;4185641;28;20689;-87
2023/04/11 09:39:44;;;;;;;4.20;1.50;;;;;;;13.77;73.02;98058.19;4187776;28;20756;-86
2023/04/11 09:41:49;;;;;;;5.37;1.50;;;;;;;13.58;75.19;98051.97;4186642;28;20633;-86
2023/04/11 09:43:54;;;;;;;3.87;1.77;;;;;;;13.54;76.12;98061.84;4188020;28;20634;-86
2023/04/11 09:46:11;;;;;;;6.00;1.87;;;;;;;14.01;80.42;98064.91;4188361;28;20733;-85
2023/04/11 09:48:14;;;;;;;6.93;2.10;;;;;;;14.39;79.69;98071.28;4185658;28;20646;-85